OBBIOEDF

Guest
Details From OBBI - BAHRAIN INTL
To OEDF - KING FAHD INTL
Flight Number -
Tags generated
Created
Modified
Stats Distance 48 nm / 89 km
Max Altitude 200 ft / 61 m
Waypoints 3
Social Downloads 0
Likes 0
Share VATSIM

Download

Looking for another format? Having issues loading an existing format? Contact us
Advertisement - Login to hide

Notes

Basic altitude profile: - Ascent Rate: 2500ft/min - Ascent Speed: 250kts - Cruise Altitude: 35000ft - Cruise Speed: 420kts - Descent Rate: 1500ft/min - Descent Speed: 250kts Options: - Use NATs: yes - Use PACOTS: yes - Use low airways: yes - Use high airways: no

Route

OBBI BAH OEDF

ID Type Via Altitude Latitude Longitude Leg Dist Tot Dist Heading (true) Name
O OBBI APT - 0 ft / 0 m 26.26784˚ 50.63710˚ - 0 nm - BAHRAIN INTL
BAH VOR - 200 ft / 61 m 26.26419˚ 50.64885˚ 0 nm 0 nm 109° / 109° BAHRAIN VOR-DME
O OEDF APT - 0 ft / 0 m 26.47120˚ 49.79790˚ 47 nm 48 nm 285° / 285° KING FAHD INTL

Altitude Profile

Advertisement - Login to hide

OBBI

Details ICAO OBBI (BAH)
Name BAHRAIN INTL
Region Bahrain
Timezone Asia/Bahrain (UTC+3.0)
Stats Elevation 6 ft / 2 m (AMSL)
Location 26.267837° 50.637095°
Runways 2
Magnetic Variation 2.783° E

METAR

OBBI 272130Z VRB02KT CAVOK 30/25 Q1005 NOSIG

Decode

TAF

TAF OBBI 271700Z 2718/2900 VRB05KT CAVOK= TAF OMAA 271700Z 2718/2900 05006KT 8000 NSC BECMG 2719/2721 VRB02KT BECMG 2801/2803 18010KT BECMG 2808/2810 32012KT PROB30 TEMPO 2811/2814 VRB15G25KT 4000 BLDU FEW045TCU BECMG 2816/2818 05006KT

Decode

Departure Runways

ID Width Length Bearing (true) Bearing (mag) Surface Threshold Offset Overrun Length
12L 197 ft / 60 m 12,893 ft / 3,930 m 122.74° 119.96° Asphalt 1,000 ft / 305 m 0 ft / 0 m
12R 148 ft / 45 m 8,303 ft / 2,531 m 122.76° 119.98° Asphalt 1,000 ft / 305 m 0 ft / 0 m
30L 148 ft / 45 m 8,303 ft / 2,531 m 302.77° 299.99° Asphalt 395 ft / 120 m 0 ft / 0 m
30R 197 ft / 60 m 12,893 ft / 3,930 m 302.75° 299.97° Asphalt 1,000 ft / 305 m 0 ft / 0 m

OEDF

Details ICAO OEDF (DMM)
Name KING FAHD INTL
Region Saudi Arabia
Timezone Asia/Riyadh (UTC+3.0)
Stats Elevation 72 ft / 22 m (AMSL)
Location 26.471197° 49.797900°
Runways 2
Magnetic Variation 2.917° E

METAR

OEDF 272100Z 19004KT CAVOK 29/15 Q1006 NOSIG

Decode

TAF

TAF OEDF 270900Z 2712/2818 02016KT CAVOK BECMG 2718/2720 VRB03KT= TAF OEDR 270900Z 2712/2818 02016KT CAVOK BECMG 2718/2720 VRB03K

Decode

Destination Runways

ID Width Length Bearing (true) Bearing (mag) Surface Threshold Offset Overrun Length
16L 197 ft / 60 m 13,170 ft / 4,014 m 164.55° 161.63° Asphalt 0 ft / 0 m 1,130 ft / 344 m
16R 197 ft / 60 m 13,170 ft / 4,014 m 164.54° 161.62° Asphalt 0 ft / 0 m 1,130 ft / 344 m
34L 197 ft / 60 m 13,170 ft / 4,014 m 344.54° 341.62° Asphalt 0 ft / 0 m 1,130 ft / 344 m
34R 197 ft / 60 m 13,170 ft / 4,014 m 344.55° 341.63° Asphalt 0 ft / 0 m 1,130 ft / 344 m

Approach Navaids

Runway Type Ident Frequency Range Bearing (true) Bearing (mag) Slope Elevation
16L Localiser IMBF 111.70 MHz 18 nm / 33 km 164.56° 161.64° - 72 ft / 22 m (AMSL)
16L Glidescope IMBF 111.70 MHz 10 nm / 19 km 164.55° 161.63° 3.00° 72 ft / 22 m (AMSL)
16R Localiser IWSR 108.10 MHz 18 nm / 33 km 164.60° 161.68° - 72 ft / 22 m (AMSL)
16R Glidescope IWSR 108.10 MHz 10 nm / 19 km 164.54° 161.62° 3.00° 72 ft / 22 m (AMSL)
34L Localiser IWMR 108.90 MHz 18 nm / 33 km 344.48° 341.57° - 72 ft / 22 m (AMSL)
34L Glidescope IWMR 108.90 MHz 10 nm / 19 km 344.54° 341.62° 3.00° 72 ft / 22 m (AMSL)
34R Localiser IABF 110.70 MHz 18 nm / 33 km 344.55° 341.63° - 72 ft / 22 m (AMSL)
34R Glidescope IABF 110.70 MHz 10 nm / 19 km 344.55° 341.63° 3.00° 72 ft / 22 m (AMSL)

Popular Alternatives